createdAt,value
2019-02-21T00:00:23.854Z,7.63
2019-02-21T00:03:38.692Z,9.60
2019-02-21T00:07:01.096Z,8.30
2019-02-21T00:10:23.808Z,8.00
2019-02-21T00:13:46.774Z,7.63
2019-02-21T00:17:08.914Z,8.17
2019-02-21T00:20:31.410Z,7.63
2019-02-21T00:23:53.913Z,8.13
2019-02-21T00:27:16.616Z,7.70
2019-02-21T00:30:39.357Z,8.93
2019-02-21T00:34:01.592Z,9.40
2019-02-21T00:37:24.473Z,8.53
2019-02-21T00:40:47.124Z,7.63
2019-02-21T00:44:09.792Z,8.07
2019-02-21T00:47:32.371Z,8.27
2019-02-21T00:50:55.263Z,8.80
2019-02-21T00:54:17.843Z,8.80
2019-02-21T00:57:40.810Z,9.43
2019-02-21T01:01:03.431Z,8.57
2019-02-21T01:04:25.956Z,8.33
2019-02-21T01:07:48.709Z,8.30
2019-02-21T01:11:11.359Z,8.30
2019-02-21T01:14:33.849Z,9.23
2019-02-21T01:17:56.248Z,8.70
2019-02-21T01:21:18.627Z,9.10
2019-02-21T01:24:41.114Z,8.57
2019-02-21T01:28:03.770Z,7.57
2019-02-21T01:31:25.933Z,8.53
2019-02-21T01:34:48.260Z,8.30
2019-02-21T01:38:10.670Z,8.33
2019-02-21T01:41:33.286Z,8.77
2019-02-21T01:44:55.696Z,8.93
2019-02-21T01:48:18.437Z,8.60
2019-02-21T01:51:40.911Z,9.17
2019-02-21T01:55:03.595Z,8.70
2019-02-21T01:58:26.129Z,8.67
2019-02-21T02:01:48.721Z,8.77
2019-02-21T02:05:11.126Z,9.50
2019-02-21T02:08:33.761Z,10.70
2019-02-21T02:11:56.335Z,9.47
2019-02-21T02:15:18.866Z,9.27
2019-02-21T02:18:41.521Z,9.70
2019-02-21T02:22:03.979Z,10.73
2019-02-21T02:25:26.528Z,10.53
2019-02-21T02:28:49.363Z,11.03
2019-02-21T02:32:11.666Z,9.90
2019-02-21T02:35:34.462Z,10.77
2019-02-21T02:38:56.962Z,10.83
2019-02-21T02:42:19.342Z,11.07
2019-02-21T02:45:42.253Z,10.53
2019-02-21T02:49:04.692Z,11.87
2019-02-21T02:52:27.355Z,11.87
2019-02-21T02:55:49.854Z,11.63
2019-02-21T02:59:11.978Z,12.03
2019-02-21T03:02:34.389Z,13.03
2019-02-21T03:05:57.087Z,13.27
2019-02-21T03:09:19.665Z,13.07
2019-02-21T03:12:42.031Z,13.30
2019-02-21T03:16:04.542Z,13.80
2019-02-21T03:19:27.158Z,13.27
2019-02-21T03:22:49.902Z,17.90
2019-02-21T03:26:12.542Z,14.10
2019-02-21T03:29:35.024Z,15.20
2019-02-21T03:32:57.497Z,14.20
2019-02-21T03:36:20.021Z,15.40
2019-02-21T03:39:42.850Z,14.13
2019-02-21T03:43:05.701Z,19.33
2019-02-21T03:46:28.445Z,17.33
2019-02-21T03:49:51.280Z,16.50
2019-02-21T03:53:13.722Z,14.97
2019-02-21T03:56:36.359Z,16.20
2019-02-21T03:59:59.295Z,16.40
2019-02-21T04:03:21.733Z,16.30
2019-02-21T04:06:44.565Z,18.23
2019-02-21T04:10:07.375Z,18.80
2019-02-21T04:13:30.384Z,17.17
2019-02-21T04:16:53.169Z,16.90
2019-02-21T04:20:15.865Z,17.13
2019-02-21T04:23:38.303Z,17.90
2019-02-21T04:27:00.480Z,19.80
2019-02-21T04:30:22.902Z,19.00
2019-02-21T04:33:45.371Z,18.73
2019-02-21T04:37:07.876Z,20.63
2019-02-21T04:40:30.320Z,20.13
2019-02-21T04:43:52.433Z,22.17
2019-02-21T04:47:14.818Z,21.67
2019-02-21T04:50:37.216Z,22.13
2019-02-21T04:54:00.026Z,22.17
2019-02-21T04:57:22.498Z,21.47
2019-02-21T05:00:45.189Z,20.77
2019-02-21T05:04:07.473Z,22.40
2019-02-21T05:07:29.986Z,23.07
2019-02-21T05:10:52.353Z,22.60
2019-02-21T05:14:14.498Z,22.23
2019-02-21T05:17:37.038Z,22.93
2019-02-21T05:21:00.049Z,22.90
2019-02-21T05:24:22.469Z,24.53
2019-02-21T05:27:49.962Z,22.67
2019-02-21T05:31:25.169Z,24.47
2019-02-21T05:35:00.384Z,26.07
2019-02-21T05:38:47.571Z,29.03
2019-02-21T05:42:34.977Z,28.43
2019-02-21T05:46:15.237Z,29.13
2019-02-21T05:49:47.977Z,31.27
2019-02-21T05:53:33.381Z,33.40
2019-02-21T05:57:21.453Z,32.10
2019-02-21T06:00:59.916Z,30.07
2019-02-21T06:04:30.358Z,31.77
2019-02-21T06:07:58.742Z,34.03
2019-02-21T06:11:36.354Z,33.10
2019-02-21T06:15:28.484Z,32.43
2019-02-21T06:19:10.019Z,32.73
2019-02-21T06:22:49.361Z,30.60
2019-02-21T06:26:30.965Z,31.73
2019-02-21T06:30:07.693Z,29.93
2019-02-21T06:33:29.857Z,31.03
2019-02-21T06:36:52.312Z,31.90
2019-02-21T06:40:14.941Z,29.50
2019-02-21T06:43:37.629Z,29.77
2019-02-21T06:47:00.143Z,31.20
2019-02-21T06:50:26.673Z,30.63
2019-02-21T06:53:46.337Z,31.23
2019-02-21T06:57:08.910Z,30.47
2019-02-21T07:00:32.091Z,31.40
2019-02-21T07:03:54.815Z,29.60
2019-02-21T07:07:17.410Z,29.77
2019-02-21T07:10:39.916Z,30.83
2019-02-21T07:14:05.302Z,28.73
2019-02-21T07:17:28.017Z,29.57
2019-02-21T07:20:50.506Z,29.53
2019-02-21T07:24:13.004Z,30.37
2019-02-21T07:27:35.516Z,29.33
2019-02-21T07:30:57.689Z,30.00
2019-02-21T07:34:20.153Z,28.23
2019-02-21T07:37:42.724Z,27.57
2019-02-21T07:41:04.955Z,29.03
2019-02-21T07:44:27.504Z,27.90
2019-02-21T07:47:50.190Z,29.10
2019-02-21T07:51:13.616Z,27.97
2019-02-21T07:54:36.377Z,28.20
2019-02-21T07:57:58.834Z,27.60
2019-02-21T08:01:21.511Z,26.67
2019-02-21T08:04:44.054Z,28.10
2019-02-21T08:08:09.138Z,26.50
2019-02-21T08:11:31.233Z,27.77
2019-02-21T08:14:56.221Z,27.93
2019-02-21T08:18:18.019Z,29.10
2019-02-21T08:21:43.338Z,28.90
2019-02-21T08:25:05.335Z,28.07
2019-02-21T08:28:28.162Z,29.20
2019-02-21T08:31:50.833Z,29.60
2019-02-21T08:35:13.510Z,29.90
2019-02-21T08:38:36.079Z,31.23
2019-02-21T08:41:58.986Z,30.47
2019-02-21T08:45:21.610Z,32.30
2019-02-21T08:48:44.265Z,31.40
2019-02-21T08:52:06.402Z,33.47
2019-02-21T08:55:29.042Z,33.10
2019-02-21T08:58:51.786Z,31.60
2019-02-21T09:02:14.489Z,31.27
2019-02-21T09:05:36.974Z,30.43
2019-02-21T09:08:59.622Z,30.07
2019-02-21T09:12:22.290Z,30.37
2019-02-21T09:15:46.573Z,29.03
2019-02-21T09:19:08.501Z,30.73
2019-02-21T09:22:30.766Z,30.53
2019-02-21T09:25:53.292Z,29.90
2019-02-21T09:29:15.914Z,30.33
2019-02-21T09:32:38.310Z,29.70
2019-02-21T09:36:01.153Z,30.00
2019-02-21T09:39:23.554Z,28.50
2019-02-21T09:42:46.002Z,27.70
2019-02-21T09:46:08.506Z,28.80
2019-02-21T09:49:31.045Z,28.57
2019-02-21T09:52:53.761Z,27.93
2019-02-21T09:56:16.533Z,28.67
2019-02-21T09:59:38.541Z,29.37
2019-02-21T10:03:00.784Z,26.80
2019-02-21T10:06:23.368Z,26.90
2019-02-21T10:09:45.867Z,27.43
2019-02-21T10:13:08.530Z,26.23
2019-02-21T10:16:31.206Z,26.90
2019-02-21T10:19:54.145Z,26.13
2019-02-21T10:23:16.934Z,26.93
2019-02-21T10:26:39.774Z,26.03
2019-02-21T10:30:02.406Z,27.30
2019-02-21T10:33:25.500Z,24.83
2019-02-21T10:36:48.474Z,25.33
2019-02-21T10:40:11.546Z,24.97
2019-02-21T10:43:33.996Z,23.83
2019-02-21T10:46:56.497Z,25.40
2019-02-21T10:50:19.194Z,25.07
2019-02-21T10:53:41.673Z,24.87
2019-02-21T10:57:04.229Z,24.53
2019-02-21T11:00:27.980Z,24.63
2019-02-21T11:03:50.511Z,23.03
2019-02-21T11:07:13.047Z,24.10
2019-02-21T11:10:35.561Z,22.47
2019-02-21T11:13:57.934Z,22.40
2019-02-21T11:17:20.616Z,20.43
2019-02-21T11:20:43.193Z,21.40
2019-02-21T11:24:05.942Z,21.73
2019-02-21T11:27:28.296Z,19.27
2019-02-21T11:30:51.218Z,19.87
2019-02-21T11:34:13.257Z,20.80
2019-02-21T11:37:42.666Z,18.97
2019-02-21T11:40:59.651Z,18.47
2019-02-21T11:44:21.882Z,18.03
2019-02-21T11:47:44.631Z,17.77
2019-02-21T11:51:07.623Z,17.87
2019-02-21T11:54:30.181Z,17.80
2019-02-21T11:57:52.784Z,17.50
2019-02-21T12:01:14.840Z,16.07
2019-02-21T12:04:37.633Z,17.03
2019-02-21T12:08:00.451Z,16.37
2019-02-21T12:11:22.712Z,15.83
2019-02-21T12:14:45.426Z,16.23
2019-02-21T12:18:08.410Z,18.20
2019-02-21T12:21:31.043Z,16.10
2019-02-21T12:24:53.914Z,16.63
2019-02-21T12:28:16.764Z,15.30
2019-02-21T12:31:39.768Z,16.70
2019-02-21T12:35:02.661Z,18.83
2019-02-21T12:38:25.419Z,16.00
2019-02-21T12:41:48.061Z,17.27
2019-02-21T12:45:14.497Z,15.97
2019-02-21T12:48:37.538Z,16.57
2019-02-21T12:52:00.373Z,15.97
2019-02-21T12:55:29.411Z,14.97
2019-02-21T12:58:47.035Z,16.13
2019-02-21T13:02:09.641Z,14.27
2019-02-21T13:05:40.620Z,15.00
2019-02-21T13:08:56.357Z,14.73
2019-02-21T13:12:18.922Z,16.20
2019-02-21T13:15:41.189Z,14.90
2019-02-21T13:19:03.922Z,15.90
2019-02-21T13:22:26.558Z,14.60
2019-02-21T13:25:49.218Z,14.33
2019-02-21T13:29:12.056Z,14.00
2019-02-21T13:32:34.617Z,13.13
2019-02-21T13:35:57.545Z,11.97
2019-02-21T13:39:19.685Z,11.40
2019-02-21T13:42:42.145Z,11.17
2019-02-21T13:46:04.868Z,10.47
2019-02-21T13:49:26.988Z,9.13
2019-02-21T13:52:49.677Z,11.13
2019-02-21T13:56:12.054Z,10.50
2019-02-21T13:59:35.093Z,10.83
2019-02-21T14:07:37.342Z,10.90
2019-02-21T14:35:15.203Z,11.40
2019-02-21T14:38:38.722Z,11.50
2019-02-21T14:42:01.422Z,12.40
2019-02-21T14:45:24.269Z,12.30
2019-02-21T14:49:16.905Z,13.20
2019-02-21T14:52:39.770Z,14.00
2019-02-21T14:56:01.894Z,14.13
2019-02-21T14:59:24.366Z,13.90
2019-02-21T15:02:47.013Z,15.97
2019-02-21T15:06:09.590Z,14.47
2019-02-21T15:09:32.429Z,15.03
2019-02-21T15:12:54.896Z,14.50
2019-02-21T15:16:17.596Z,15.00
2019-02-21T15:19:40.425Z,15.13
2019-02-21T15:23:02.629Z,13.40
2019-02-21T15:26:25.095Z,13.43
2019-02-21T15:29:47.783Z,15.03
2019-02-21T15:35:12.269Z,14.13
2019-02-21T15:38:34.752Z,14.60
2019-02-21T15:41:57.565Z,14.57
2019-02-21T15:45:34.146Z,13.60
2019-02-21T15:48:56.809Z,14.83
2019-02-21T15:52:22.369Z,14.00
2019-02-21T15:55:43.477Z,15.17
2019-02-21T15:59:05.973Z,15.90
2019-02-21T16:02:28.718Z,15.47
2019-02-21T16:05:51.147Z,13.70
2019-02-21T16:10:03.604Z,14.97
2019-02-21T16:13:26.149Z,14.73
2019-02-21T16:16:49.254Z,14.07
2019-02-21T16:20:12.589Z,13.77
2019-02-21T16:23:35.007Z,14.40
2019-02-21T16:26:57.394Z,14.70
2019-02-21T16:30:22.077Z,13.87
2019-02-21T16:33:44.021Z,14.17
2019-02-21T16:37:06.586Z,14.43
2019-02-21T16:40:29.376Z,14.97
2019-02-21T16:43:52.109Z,14.33
2019-02-21T16:47:14.516Z,14.67
2019-02-21T16:50:37.196Z,14.67
2019-02-21T16:53:59.359Z,14.70
2019-02-21T16:57:21.573Z,14.43
2019-02-21T17:00:53.247Z,13.83
2019-02-21T17:04:08.346Z,13.87
2019-02-21T17:07:30.793Z,15.23
2019-02-21T17:10:53.582Z,14.97
2019-02-21T17:14:16.417Z,15.57
2019-02-21T17:17:39.220Z,14.70
2019-02-21T17:21:01.838Z,15.10
2019-02-21T17:24:24.271Z,14.73
2019-02-21T17:27:46.860Z,14.10
2019-02-21T17:31:09.256Z,14.60
2019-02-21T17:34:32.231Z,15.63
2019-02-21T17:37:55.117Z,15.03
2019-02-21T17:41:17.477Z,15.60
2019-02-21T17:44:39.582Z,15.17
2019-02-21T17:48:02.061Z,20.40
2019-02-21T17:51:24.350Z,16.20
2019-02-21T17:54:47.614Z,14.07
2019-02-21T17:58:10.445Z,14.17
2019-02-21T18:01:32.518Z,16.70
2019-02-21T18:04:55.015Z,15.43
2019-02-21T18:08:17.466Z,17.20
2019-02-21T18:11:40.235Z,17.50
2019-02-21T18:15:02.702Z,19.20
2019-02-21T18:18:24.938Z,22.00
2019-02-21T18:21:47.434Z,21.73
2019-02-21T18:25:19.721Z,23.87
2019-02-21T18:28:42.249Z,25.53
2019-02-21T18:32:04.781Z,26.37
2019-02-21T18:35:27.528Z,29.23
2019-02-21T18:38:50.277Z,33.20
2019-02-21T18:42:12.721Z,32.73
2019-02-21T18:45:35.101Z,33.43
2019-02-21T18:48:57.660Z,33.57
2019-02-21T18:52:20.204Z,36.00
2019-02-21T18:55:42.587Z,38.27
2019-02-21T18:59:05.005Z,41.07
2019-02-21T19:02:27.766Z,42.97
2019-02-21T19:05:50.410Z,44.80
2019-02-21T19:09:12.644Z,45.03
2019-02-21T19:12:35.407Z,46.50
2019-02-21T19:15:58.234Z,46.63
2019-02-21T19:19:20.986Z,47.20
2019-02-21T19:22:43.439Z,50.17
2019-02-21T19:26:06.213Z,49.23
2019-02-21T19:29:29.013Z,54.60
2019-02-21T19:32:51.706Z,52.77
2019-02-21T19:36:14.149Z,52.07
2019-02-21T19:39:36.590Z,50.83
2019-02-21T19:43:00.225Z,53.50
2019-02-21T19:46:22.430Z,54.83
2019-02-21T19:49:44.886Z,52.00
2019-02-21T19:53:07.110Z,53.30
2019-02-21T19:56:29.689Z,54.20
2019-02-21T19:59:52.220Z,54.07
2019-02-21T20:03:15.104Z,57.23
2019-02-21T20:06:37.489Z,57.37
2019-02-21T20:09:59.948Z,57.80
2019-02-21T20:13:22.522Z,60.40
2019-02-21T20:16:46.005Z,58.87
2019-02-21T20:20:10.449Z,58.37
2019-02-21T20:23:33.370Z,62.30
2019-02-21T20:26:55.721Z,60.73
2019-02-21T20:30:18.404Z,58.13
2019-02-21T20:33:40.582Z,61.13
2019-02-21T20:37:03.313Z,63.03
2019-02-21T20:40:26.031Z,61.77
2019-02-21T20:43:48.345Z,64.23
2019-02-21T20:47:10.762Z,63.60
2019-02-21T20:50:33.386Z,67.17
2019-02-21T20:53:56.046Z,63.07
2019-02-21T20:57:18.769Z,64.77
2019-02-21T21:00:41.377Z,64.27
2019-02-21T21:04:03.870Z,63.53
2019-02-21T21:07:26.362Z,63.03
2019-02-21T21:10:48.778Z,64.33
2019-02-21T21:14:11.277Z,63.07
2019-02-21T21:17:34.005Z,61.87
2019-02-21T21:20:56.705Z,59.70
2019-02-21T21:24:19.341Z,59.23
2019-02-21T21:27:41.890Z,60.00
2019-02-21T21:31:04.432Z,62.60
2019-02-21T21:34:27.010Z,62.77
2019-02-21T21:37:49.595Z,66.97
2019-02-21T21:41:12.206Z,65.43
2019-02-21T21:44:34.807Z,62.63
2019-02-21T21:47:57.535Z,57.97
2019-02-21T21:51:20.284Z,58.10
2019-02-21T21:54:43.047Z,54.53
2019-02-21T21:58:06.083Z,53.13
2019-02-21T22:01:28.670Z,51.57
2019-02-21T22:04:51.590Z,52.77
2019-02-21T22:08:14.629Z,50.27
2019-02-21T22:11:37.023Z,49.10
2019-02-21T22:14:59.583Z,49.37
2019-02-21T22:18:21.665Z,48.03
2019-02-21T22:21:44.161Z,46.67
2019-02-21T22:25:07.927Z,47.77
2019-02-21T22:28:30.434Z,46.23
2019-02-21T22:31:52.795Z,46.57
2019-02-21T22:35:15.318Z,48.80
2019-02-21T22:38:37.794Z,46.07
2019-02-21T22:42:00.370Z,47.10
2019-02-21T22:45:22.817Z,46.87
2019-02-21T22:48:47.981Z,45.90
2019-02-21T22:52:10.261Z,47.20
2019-02-21T22:55:32.662Z,48.23
2019-02-21T22:58:55.097Z,43.57
2019-02-21T23:02:18.129Z,45.03
2019-02-21T23:06:15.189Z,42.67
2019-02-21T23:09:37.579Z,42.93
2019-02-21T23:13:00.185Z,40.57
2019-02-21T23:16:23.067Z,41.23
2019-02-21T23:19:45.755Z,40.93
2019-02-21T23:23:07.821Z,39.63
2019-02-21T23:26:30.357Z,39.00
2019-02-21T23:29:52.877Z,41.17
2019-02-21T23:33:15.051Z,40.87
2019-02-21T23:36:37.486Z,38.43
2019-02-21T23:39:59.906Z,37.73
2019-02-21T23:43:22.300Z,32.60
2019-02-21T23:46:45.375Z,33.23
2019-02-21T23:50:08.234Z,30.23
2019-02-21T23:53:30.533Z,30.80
2019-02-21T23:56:53.048Z,28.57
